Time;durP1;ratioP1;P1;durP2;ratioP2;P2;SDS_P1;SDS_P2;PMS_P1;PMS_P2;Temp;Humidity;BMP_temperature;BMP_pressure;BME280_temperature;BME280_humidity;BME280_pressure;Samples;Min_cycle;Max_cycle;Signal;HPM_P1;HPM_P2
2020/12/13 00:01:29;;;;;;;2.13;1.53;;;20.80;34.30;;;;;;8270978;28;20069;-46
2020/12/13 00:05:30;;;;;;;3.10;1.90;;;20.70;34.20;;;;;;8297738;28;20041;-44
2020/12/13 00:09:31;;;;;;;2.55;2.00;;;20.70;34.20;;;;;;8295210;28;20033;-44
2020/12/13 00:13:31;;;;;;;1.90;1.70;;;20.60;34.20;;;;;;8285722;28;20392;-46
2020/12/13 00:17:32;;;;;;;2.33;1.40;;;20.60;34.20;;;;;;8296720;28;20045;-45
2020/12/13 00:21:32;;;;;;;2.50;1.73;;;20.50;34.20;;;;;;8295805;28;20499;-48
2020/12/13 00:25:33;;;;;;;3.17;1.90;;;20.40;34.20;;;;;;8288820;28;20041;-45
2020/12/13 00:29:33;;;;;;;2.87;1.57;;;20.40;34.20;;;;;;8264484;28;20038;-46
2020/12/13 00:33:34;;;;;;;1.77;1.60;;;20.30;34.20;;;;;;8267636;28;20504;-45
2020/12/13 00:37:34;;;;;;;2.90;1.77;;;20.30;34.20;;;;;;8264986;28;20026;-44
2020/12/13 00:41:35;;;;;;;3.17;1.53;;;20.30;34.20;;;;;;8264274;28;20395;-44
2020/12/13 00:45:35;;;;;;;1.53;1.40;;;20.20;34.20;;;;;;8286884;28;20026;-45
2020/12/13 00:49:36;;;;;;;1.77;1.57;;;20.20;34.20;;;;;;8267428;28;20460;-48
2020/12/13 00:53:36;;;;;;;2.07;1.87;;;20.10;34.20;;;;;;8264345;28;20057;-45
2020/12/13 00:57:37;;;;;;;3.23;2.00;;;20.10;34.20;;;;;;8262391;28;20057;-46
2020/12/13 01:01:37;;;;;;;2.07;1.70;;;20.00;34.20;;;;;;8263839;28;20129;-46
2020/12/13 01:05:38;;;;;;;1.70;1.60;;;20.00;34.30;;;;;;8266598;28;20413;-46
2020/12/13 01:09:39;;;;;;;2.27;1.73;;;20.00;34.30;;;;;;8265278;28;20034;-45
2020/12/13 01:13:39;;;;;;;2.77;1.30;;;20.00;34.40;;;;;;8295661;28;20296;-48
2020/12/13 01:17:45;;;;;;;3.63;1.90;;;19.90;34.90;;;;;;8295488;28;20445;-44
2020/12/13 01:21:45;;;;;;;1.42;1.10;;;19.90;34.40;;;;;;8293877;28;20092;-44
2020/12/13 01:25:46;;;;;;;1.60;1.50;;;19.80;34.40;;;;;;8299565;28;20026;-45
2020/12/13 01:29:46;;;;;;;1.73;1.30;;;19.80;34.50;;;;;;8295380;28;20066;-47
2020/12/13 01:33:48;;;;;;;2.23;2.03;;;19.80;34.50;;;;;;8293751;28;20046;-46
2020/12/13 01:37:48;;;;;;;1.33;1.23;;;19.80;34.50;;;;;;8294924;28;20030;-48
2020/12/13 01:41:56;;;;;;;1.63;1.30;;;19.70;34.50;;;;;;8299315;28;20088;-46
2020/12/13 01:45:57;;;;;;;1.63;1.48;;;19.70;34.50;;;;;;8289492;28;20035;-45
2020/12/13 01:49:58;;;;;;;1.60;1.40;;;19.70;34.50;;;;;;8262116;28;20046;-46
2020/12/13 01:54:00;;;;;;;2.00;1.45;;;19.60;34.50;;;;;;8261796;28;20046;-45
2020/12/13 01:58:01;;;;;;;1.42;1.30;;;19.60;34.50;;;;;;8260341;28;20042;-46
2020/12/13 02:02:04;;;;;;;2.20;1.77;;;19.60;34.50;;;;;;8265942;28;20050;-46
2020/12/13 02:06:15;;;;;;;1.40;1.30;;;19.60;34.60;;;;;;8282744;28;20061;-45
2020/12/13 02:10:16;;;;;;;2.90;1.40;;;19.50;34.50;;;;;;8292537;28;20113;-48
2020/12/13 02:14:17;;;;;;;4.68;1.77;;;19.50;34.50;;;;;;8293607;28;20096;-44
2020/12/13 02:18:18;;;;;;;1.80;1.42;;;19.50;34.60;;;;;;8275815;28;20054;-46
2020/12/13 02:22:20;;;;;;;1.50;1.40;;;19.50;34.60;;;;;;8259710;28;20034;-46
2020/12/13 02:26:21;;;;;;;1.75;1.35;;;19.50;34.60;;;;;;8259783;28;20512;-47
2020/12/13 02:30:21;;;;;;;1.73;1.13;;;19.40;34.60;;;;;;8284305;28;20037;-47
2020/12/13 02:34:22;;;;;;;1.83;1.67;;;19.40;34.60;;;;;;8260397;28;20054;-48
2020/12/13 02:38:22;;;;;;;2.60;1.40;;;19.40;34.60;;;;;;8265233;28;20041;-46
2020/12/13 02:42:23;;;;;;;3.97;2.03;;;19.40;34.60;;;;;;8260864;28;20042;-47
2020/12/13 02:46:23;;;;;;;2.33;1.60;;;19.30;34.60;;;;;;8259061;28;20034;-46
2020/12/13 02:50:24;;;;;;;1.77;1.57;;;19.30;35.10;;;;;;8260727;28;20037;-46
2020/12/13 02:54:24;;;;;;;2.10;1.90;;;19.30;34.60;;;;;;8288128;28;20104;-45
2020/12/13 02:58:25;;;;;;;1.90;1.57;;;19.30;34.60;;;;;;8291870;28;20121;-45
2020/12/13 03:02:25;;;;;;;1.80;1.60;;;19.30;34.60;;;;;;8292646;28;20061;-46
2020/12/13 03:06:26;;;;;;;2.53;1.53;;;19.30;34.60;;;;;;8292645;28;20430;-46
2020/12/13 03:10:26;;;;;;;1.97;1.43;;;19.20;34.60;;;;;;8295525;28;20033;-46
2020/12/13 03:14:27;;;;;;;4.47;1.77;;;19.20;34.60;;;;;;8277184;28;20073;-45
2020/12/13 03:18:27;;;;;;;2.57;1.80;;;19.10;34.60;;;;;;8283952;28;20034;-46
2020/12/13 03:22:28;;;;;;;2.37;1.70;;;19.10;34.60;;;;;;8290512;28;20088;-45
2020/12/13 03:26:28;;;;;;;1.43;1.33;;;19.10;34.60;;;;;;8292263;28;20030;-45
2020/12/13 03:30:29;;;;;;;2.97;1.67;;;19.10;34.60;;;;;;8296232;28;20435;-45
2020/12/13 03:34:29;;;;;;;2.10;1.53;;;19.10;34.60;;;;;;8266297;28;20410;-47
2020/12/13 03:38:30;;;;;;;1.93;1.60;;;19.10;34.60;;;;;;8292444;28;20056;-46
2020/12/13 03:42:30;;;;;;;2.80;1.57;;;19.10;34.70;;;;;;8267884;28;20364;-46
2020/12/13 03:46:31;;;;;;;1.80;1.40;;;19.00;34.60;;;;;;8262581;28;20038;-45
2020/12/13 03:50:40;;;;;;;2.33;1.60;;;19.00;34.60;;;;;;8259502;28;20180;-46
2020/12/13 03:54:41;;;;;;;2.42;1.70;;;19.00;34.60;;;;;;8259453;28;20429;-46
2020/12/13 03:58:41;;;;;;;1.97;1.43;;;19.00;34.60;;;;;;8282473;28;20061;-45
2020/12/13 04:02:42;;;;;;;2.73;1.50;;;19.00;34.70;;;;;;8259662;28;20443;-45
2020/12/13 04:06:42;;;;;;;1.63;1.50;;;19.00;34.70;;;;;;8261923;28;20037;-47
2020/12/13 04:10:43;;;;;;;2.27;1.50;;;19.00;34.70;;;;;;8269188;28;20037;-45
2020/12/13 04:14:43;;;;;;;1.67;1.30;;;18.90;34.60;;;;;;8273262;28;20074;-45
2020/12/13 04:18:44;;;;;;;1.77;1.40;;;18.90;34.70;;;;;;8257561;28;20066;-45
2020/12/13 04:22:44;;;;;;;1.87;1.47;;;18.90;34.70;;;;;;8263533;28;20034;-46
2020/12/13 04:26:45;;;;;;;2.73;1.43;;;18.90;34.60;;;;;;8264797;28;20049;-46
2020/12/13 04:30:46;;;;;;;1.93;1.33;;;18.90;34.70;;;;;;8287482;28;20037;-45
2020/12/13 04:34:46;;;;;;;1.50;1.40;;;18.90;34.60;;;;;;8274667;28;20101;-46
2020/12/13 04:38:47;;;;;;;2.00;1.30;;;18.80;34.60;;;;;;8282786;28;20034;-45
2020/12/13 04:42:49;;;;;;;1.47;1.30;;;18.90;34.60;;;;;;8287032;28;20068;-46
2020/12/13 04:46:53;;;;;;;1.55;1.40;;;18.80;34.50;;;;;;8264211;28;20039;-44
2020/12/13 04:50:56;;;;;;;1.85;1.30;;;18.80;34.50;;;;;;8264156;28;20145;-45
2020/12/13 04:54:57;;;;;;;1.60;1.30;;;18.90;34.60;;;;;;8263012;28;20407;-45
2020/12/13 04:59:00;;;;;;;2.80;1.73;;;18.90;34.60;;;;;;8268251;28;20034;-45
2020/12/13 05:03:00;;;;;;;2.10;1.30;;;18.80;34.50;;;;;;8284069;28;20049;-45
2020/12/13 05:07:01;;;;;;;2.60;1.80;;;18.80;34.60;;;;;;8270057;28;20116;-45
2020/12/13 05:11:02;;;;;;;1.70;1.40;;;18.80;34.50;;;;;;8295970;28;20029;-45
2020/12/13 05:15:04;;;;;;;1.93;1.53;;;18.80;34.60;;;;;;8299935;28;20057;-45
2020/12/13 05:19:06;;;;;;;2.20;1.67;;;18.80;34.50;;;;;;8293738;28;20124;-45
2020/12/13 05:23:07;;;;;;;2.35;1.10;;;18.80;34.50;;;;;;8283077;28;20061;-44
2020/12/13 05:27:08;;;;;;;2.75;1.77;;;18.80;34.50;;;;;;8262872;28;20388;-45
2020/12/13 05:31:10;;;;;;;1.47;1.30;;;18.80;34.50;;;;;;8261425;28;20061;-45
2020/12/13 05:35:11;;;;;;;3.25;1.88;;;18.80;34.60;;;;;;8280269;28;20048;-45
2020/12/13 05:39:12;;;;;;;3.38;1.52;;;18.80;34.60;;;;;;8273285;28;20102;-45
2020/12/13 05:43:21;;;;;;;1.53;1.40;;;18.70;34.50;;;;;;8267323;28;20446;-45
2020/12/13 05:47:58;;;;;;;1.83;1.35;;;18.70;34.50;;;;;;8279950;28;20030;-47
2020/12/13 05:51:46;;;;;;;1.50;1.20;;;18.70;34.50;;;;;;8263694;28;20045;-45
2020/12/13 05:55:47;;;;;;;1.67;1.40;;;18.70;34.50;;;;;;8298085;28;20042;-45
2020/12/13 05:59:48;;;;;;;2.27;1.33;;;18.70;34.50;;;;;;8275955;28;20042;-45
2020/12/13 06:03:53;;;;;;;2.43;1.20;;;18.70;34.50;;;;;;8262654;28;20445;-45
2020/12/13 06:07:57;;;;;;;2.03;1.10;;;18.70;34.50;;;;;;8282999;28;20038;-45
2020/12/13 06:12:02;;;;;;;1.00;0.90;;;18.70;34.50;;;;;;8266092;28;20562;-45
2020/12/13 06:16:04;;;;;;;2.45;1.60;;;18.70;34.50;;;;;;8260678;28;20038;-45
2020/12/13 06:20:04;;;;;;;1.38;1.27;;;18.70;34.50;;;;;;8273967;28;20072;-45
2020/12/13 06:24:07;;;;;;;1.83;1.40;;;18.60;34.50;;;;;;8294350;28;20030;-45
2020/12/13 06:28:10;;;;;;;1.30;1.02;;;18.60;34.50;;;;;;8294045;28;20100;-45
2020/12/13 06:32:11;;;;;;;1.55;1.23;;;18.60;34.50;;;;;;8296537;28;20038;-45
2020/12/13 06:36:13;;;;;;;1.60;1.10;;;18.60;34.50;;;;;;8271764;28;20081;-45
2020/12/13 06:40:19;;;;;;;2.22;0.90;;;18.60;34.50;;;;;;8289398;28;20041;-44
2020/12/13 06:44:22;;;;;;;1.90;1.30;;;18.60;34.50;;;;;;8278258;28;20030;-45
2020/12/13 06:48:35;;;;;;;1.17;1.08;;;18.60;34.60;;;;;;8264257;28;20023;-46
2020/12/13 06:52:36;;;;;;;1.10;1.00;;;18.60;34.60;;;;;;8291623;28;20466;-45
2020/12/13 06:56:37;;;;;;;1.95;1.42;;;18.60;34.50;;;;;;8275932;28;20027;-45
2020/12/13 07:00:50;;;;;;;;;;;18.60;34.60;;;;;;8259403;28;20042;-45
2020/12/13 07:04:50;;;;;;;0.82;0.82;;;18.60;34.60;;;;;;8271107;28;19926;-46
2020/12/13 07:08:58;;;;;;;1.03;0.90;;;18.50;34.60;;;;;;8278032;28;20026;-45
2020/12/13 07:13:00;;;;;;;1.33;1.02;;;18.50;34.60;;;;;;8282785;28;20054;-45
2020/12/13 07:17:12;;;;;;;1.42;1.10;;;18.50;34.60;;;;;;8259913;28;20043;-45
2020/12/13 07:21:15;;;;;;;2.50;1.30;;;18.50;34.60;;;;;;8260145;28;20031;-45
2020/12/13 07:25:16;;;;;;;1.15;1.05;;;18.50;34.60;;;;;;8262393;28;20034;-44
2020/12/13 07:29:19;;;;;;;1.73;0.87;;;18.50;34.60;;;;;;8259652;28;20077;-45
2020/12/13 07:33:19;;;;;;;1.02;0.75;;;18.50;34.60;;;;;;8259424;28;20508;-45
2020/12/13 07:37:21;;;;;;;1.07;0.90;;;18.50;34.60;;;;;;8282375;28;20108;-45
2020/12/13 07:41:23;;;;;;;0.80;0.80;;;18.50;34.70;;;;;;8259715;28;20421;-45
2020/12/13 07:45:24;;;;;;;1.60;1.10;;;18.40;34.60;;;;;;8263796;28;20551;-45
2020/12/13 07:49:25;;;;;;;1.40;1.15;;;18.40;34.60;;;;;;8265213;28;20045;-46
2020/12/13 07:53:26;;;;;;;1.00;0.90;;;18.50;34.60;;;;;;8276549;28;20046;-45
2020/12/13 07:57:27;;;;;;;1.08;0.98;;;18.40;34.60;;;;;;8259372;28;20068;-48
2020/12/13 08:01:27;;;;;;;1.03;0.90;;;18.50;34.70;;;;;;8275783;28;20053;-46
2020/12/13 08:05:28;;;;;;;1.00;0.80;;;18.40;34.60;;;;;;8297838;28;20091;-45
2020/12/13 08:09:29;;;;;;;0.87;0.80;;;18.40;34.60;;;;;;8297643;28;20030;-45
2020/12/13 08:13:29;;;;;;;1.27;1.08;;;18.40;35.20;;;;;;8271707;28;20049;-44
2020/12/13 08:17:30;;;;;;;0.80;0.77;;;18.40;34.60;;;;;;8297713;28;20036;-45
2020/12/13 08:21:59;;;;;;;1.33;0.83;;;18.40;34.60;;;;;;8300428;28;20481;-44
2020/12/13 08:26:01;;;;;;;1.25;0.90;;;18.40;34.60;;;;;;8296408;28;20526;-45
2020/12/13 08:30:03;;;;;;;1.15;0.80;;;18.40;34.60;;;;;;8277630;28;20031;-47
2020/12/13 08:34:06;;;;;;;1.55;0.90;;;18.40;34.60;;;;;;8263124;28;20145;-45
2020/12/13 08:38:11;;;;;;;1.88;1.10;;;18.40;34.60;;;;;;8279375;28;20041;-45
2020/12/13 08:42:22;;;;;;;2.03;0.80;;;18.40;34.60;;;;;;8300207;28;20053;-45
2020/12/13 08:46:41;;;;;;;3.10;0.90;;;18.40;34.60;;;;;;8270740;28;20034;-45
2020/12/13 08:50:42;;;;;;;1.40;0.68;;;18.40;34.60;;;;;;8278064;28;20042;-46
2020/12/13 08:54:54;;;;;;;1.25;0.90;;;18.40;34.60;;;;;;8263991;28;20511;-45
2020/12/13 08:58:57;;;;;;;1.60;1.00;;;18.40;34.60;;;;;;8289716;28;20108;-47
2020/12/13 09:03:00;;;;;;;1.50;0.93;;;18.40;34.60;;;;;;8267045;28;20069;-45
2020/12/13 09:07:02;;;;;;;0.93;0.82;;;18.40;34.60;;;;;;8262140;28;20035;-46
2020/12/13 09:11:05;;;;;;;2.55;1.10;;;18.30;34.50;;;;;;8275366;28;20109;-45
2020/12/13 09:15:11;;;;;;;2.13;1.20;;;18.30;34.60;;;;;;8295325;28;20049;-45
2020/12/13 09:19:12;;;;;;;1.27;0.80;;;18.30;34.50;;;;;;8293238;28;20034;-46
2020/12/13 09:23:19;;;;;;;0.90;0.77;;;18.30;34.50;;;;;;8263043;28;20041;-46
2020/12/13 09:27:22;;;;;;;1.98;1.00;;;18.30;34.50;;;;;;8263097;28;20391;-45
2020/12/13 09:31:22;;;;;;;1.38;1.27;;;18.30;34.50;;;;;;8292695;28;20030;-45
2020/12/13 09:35:23;;;;;;;1.20;0.80;;;18.30;34.50;;;;;;8295849;28;20129;-46
2020/12/13 09:39:23;;;;;;;1.60;1.00;;;18.30;34.60;;;;;;8298157;28;20073;-45
2020/12/13 09:43:24;;;;;;;1.40;1.10;;;18.30;34.50;;;;;;8286250;28;20049;-46
2020/12/13 09:47:24;;;;;;;1.10;0.90;;;18.30;34.50;;;;;;8277224;28;20038;-45
2020/12/13 09:51:25;;;;;;;1.33;1.00;;;18.30;34.60;;;;;;8294380;28;20124;-45
2020/12/13 09:55:25;;;;;;;1.27;0.97;;;18.30;34.60;;;;;;8297003;28;20049;-45
2020/12/13 09:59:26;;;;;;;2.43;1.33;;;18.30;34.60;;;;;;8294380;28;20446;-45
2020/12/13 10:03:27;;;;;;;1.40;1.00;;;18.30;34.60;;;;;;8270320;28;20124;-45
2020/12/13 10:08:55;;;;;;;2.30;0.90;;;18.30;34.60;;;;;;8267643;28;20776;-45
2020/12/13 10:11:51;;;;;;;1.20;1.00;;;18.30;34.60;;;;;;8275131;28;20177;-46
2020/12/13 10:15:51;;;;;;;1.00;0.90;;;18.30;34.60;;;;;;8288382;28;20034;-45
2020/12/13 10:19:52;;;;;;;1.10;1.00;;;18.30;34.60;;;;;;8261558;28;20034;-45
2020/12/13 10:23:53;;;;;;;1.77;1.13;;;18.30;34.60;;;;;;8280408;28;20470;-44
2020/12/13 10:27:53;;;;;;;1.10;0.88;;;18.30;34.60;;;;;;8267593;28;20446;-45
2020/12/13 10:31:54;;;;;;;1.70;0.97;;;18.30;34.60;;;;;;8298026;28;20080;-45
2020/12/13 10:35:54;;;;;;;2.27;1.00;;;18.20;34.50;;;;;;8293525;28;20052;-45
2020/12/13 10:39:55;;;;;;;1.10;0.90;;;18.30;34.60;;;;;;8264175;28;20483;-45
2020/12/13 10:43:55;;;;;;;2.77;1.10;;;18.30;34.60;;;;;;8260549;28;20046;-45
2020/12/13 10:47:56;;;;;;;2.20;1.10;;;18.30;34.60;;;;;;8265058;28;20042;-43
2020/12/13 10:51:56;;;;;;;2.73;1.10;;;18.30;34.60;;;;;;8258818;28;20046;-43
2020/12/13 10:55:57;;;;;;;3.10;1.30;;;18.20;34.50;;;;;;8260465;28;20133;-45
2020/12/13 10:59:58;;;;;;;1.37;1.20;;;18.30;34.60;;;;;;8261132;28;20033;-43
2020/12/13 11:03:58;;;;;;;1.30;1.20;;;18.30;34.60;;;;;;8286706;28;20297;-44
2020/12/13 11:07:59;;;;;;;1.80;1.00;;;18.30;34.60;;;;;;8296928;28;20030;-44
2020/12/13 11:11:59;;;;;;;2.10;1.40;;;18.20;34.50;;;;;;8292333;28;20066;-43
2020/12/13 11:16:00;;;;;;;1.77;1.23;;;18.30;34.60;;;;;;8290931;28;20384;-43
2020/12/13 11:20:02;;;;;;;1.77;1.40;;;18.20;34.40;;;;;;8292489;28;20033;-44
2020/12/13 11:24:03;;;;;;;1.08;0.98;;;18.30;34.50;;;;;;8296591;28;20399;-43
2020/12/13 11:28:05;;;;;;;1.90;1.10;;;18.30;34.50;;;;;;8290677;28;20070;-44
2020/12/13 11:32:06;;;;;;;1.40;1.23;;;18.30;34.50;;;;;;8292230;28;20368;-44
2020/12/13 11:36:06;;;;;;;2.13;1.33;;;18.30;34.50;;;;;;8277031;28;20129;-44
2020/12/13 11:40:07;;;;;;;1.33;1.00;;;18.30;34.50;;;;;;8298494;28;20029;-44
2020/12/13 11:44:08;;;;;;;1.08;0.98;;;18.30;34.50;;;;;;8298352;28;20034;-44
2020/12/13 11:48:08;;;;;;;1.27;1.00;;;18.30;34.50;;;;;;8277670;28;20054;-44
2020/12/13 11:52:09;;;;;;;1.50;1.20;;;18.30;34.50;;;;;;8264434;28;20037;-43
2020/12/13 11:56:09;;;;;;;1.57;1.23;;;18.30;34.40;;;;;;8266365;28;20072;-44
2020/12/13 12:00:10;;;;;;;1.53;1.13;;;18.30;34.40;;;;;;8291720;28;20391;-43
2020/12/13 12:04:10;;;;;;;1.70;1.20;;;18.30;34.40;;;;;;8266837;28;20134;-44
2020/12/13 12:08:11;;;;;;;1.93;1.13;;;18.30;34.40;;;;;;8279305;28;20433;-44
2020/12/13 12:12:12;;;;;;;1.70;1.13;;;18.30;34.40;;;;;;8297755;28;20133;-44
2020/12/13 12:16:13;;;;;;;3.30;1.10;;;18.20;34.40;;;;;;8294945;28;20041;-43
2020/12/13 12:20:17;;;;;;;;;;;18.30;34.40;;;;;;8279653;28;20145;-44
2020/12/13 12:24:22;;;;;;;1.25;1.00;;;18.30;34.40;;;;;;8297545;28;19913;-44
2020/12/13 12:28:22;;;;;;;1.40;1.10;;;18.20;34.40;;;;;;8295819;28;20038;-45
2020/12/13 12:32:23;;;;;;;2.10;1.20;;;18.30;34.40;;;;;;8282157;28;20076;-44
2020/12/13 12:36:26;;;;;;;3.67;1.17;;;18.30;34.40;;;;;;8268814;28;20030;-44
2020/12/13 12:40:27;;;;;;;2.03;1.17;;;18.20;34.40;;;;;;8320064;28;20026;-45
2020/12/13 12:44:27;;;;;;;1.83;1.20;;;18.20;34.30;;;;;;8312681;28;20138;-44
2020/12/13 12:48:28;;;;;;;2.30;1.20;;;18.20;34.40;;;;;;8296415;28;20069;-44
2020/12/13 12:52:28;;;;;;;2.50;1.10;;;18.20;34.40;;;;;;8298785;28;20037;-44
2020/12/13 12:56:29;;;;;;;2.17;1.20;;;18.30;34.40;;;;;;8280128;28;20093;-45
2020/12/13 13:00:42;;;;;;;1.60;1.00;;;18.20;34.30;;;;;;8263780;28;20073;-44
2020/12/13 13:04:55;;;;;;;2.10;1.25;;;18.20;34.40;;;;;;8262349;28;20042;-45
2020/12/13 13:09:07;;;;;;;1.52;1.10;;;18.20;34.40;;;;;;8263453;28;20046;-47
2020/12/13 13:13:07;;;;;;;;;;;18.20;34.40;;;;;;8271717;28;20046;-43
2020/12/13 13:17:16;;;;;;;1.47;1.20;;;18.20;34.40;;;;;;8283016;28;19952;-44
2020/12/13 13:21:21;;;;;;;1.88;1.13;;;18.20;34.40;;;;;;8263851;28;20181;-45
2020/12/13 13:25:21;;;;;;;1.48;1.27;;;18.20;34.40;;;;;;8268114;28;20384;-44
2020/12/13 13:29:22;;;;;;;1.33;1.00;;;18.20;34.40;;;;;;8283623;28;20077;-44
2020/12/13 13:33:22;;;;;;;2.10;1.17;;;18.20;34.40;;;;;;8265126;28;20047;-44
2020/12/13 13:37:23;;;;;;;2.17;0.80;;;18.20;34.40;;;;;;8268329;28;20064;-45
2020/12/13 13:41:36;;;;;;;1.83;1.07;;;18.20;34.40;;;;;;8295365;28;20030;-45
2020/12/13 13:50:04;;;;;;;2.08;1.10;;;18.20;34.30;;;;;;8267049;28;20034;-44
2020/12/13 13:54:08;;;;;;;1.77;1.00;;;18.20;34.40;;;;;;8282169;28;20418;-45
2020/12/13 13:58:10;;;;;;;2.45;0.90;;;18.20;34.40;;;;;;8292966;28;20112;-44
2020/12/13 14:02:10;;;;;;;;;;;18.20;34.40;;;;;;8295534;28;20129;-44
2020/12/13 14:06:19;;;;;;;1.35;0.88;;;18.20;34.40;;;;;;8272820;28;19917;-44
2020/12/13 14:10:20;;;;;;;2.03;1.50;;;18.20;34.40;;;;;;8295600;28;20022;-44
2020/12/13 14:14:21;;;;;;;2.43;1.27;;;18.10;34.30;;;;;;8293226;28;20521;-44
2020/12/13 14:18:22;;;;;;;2.35;1.40;;;18.10;34.30;;;;;;8294204;28;20052;-44
2020/12/13 14:22:22;;;;;;;1.63;1.47;;;18.10;34.30;;;;;;8291871;28;20472;-44
2020/12/13 14:26:27;;;;;;;2.37;1.50;;;18.20;34.40;;;;;;8298149;28;20041;-45
2020/12/13 14:30:28;;;;;;;1.90;1.17;;;18.10;34.30;;;;;;8293640;28;20092;-44
2020/12/13 14:34:29;;;;;;;3.10;1.52;;;18.10;34.30;;;;;;8291855;28;20048;-44
2020/12/13 14:38:29;;;;;;;2.30;1.83;;;18.10;34.30;;;;;;8293226;28;20129;-45
2020/12/13 14:42:30;;;;;;;1.77;1.30;;;18.10;34.30;;;;;;8293377;28;20045;-45
2020/12/13 14:46:30;;;;;;;2.13;1.10;;;18.10;34.30;;;;;;8295833;28;20026;-45
2020/12/13 14:50:32;;;;;;;2.23;1.20;;;18.10;34.40;;;;;;8293032;28;20026;-44
2020/12/13 14:54:32;;;;;;;3.08;2.40;;;18.10;34.40;;;;;;8290972;28;20046;-42
2020/12/13 14:58:33;;;;;;;2.90;1.07;;;18.10;34.30;;;;;;8260558;28;20034;-45
2020/12/13 15:02:33;;;;;;;1.97;1.20;;;18.10;34.30;;;;;;8281243;28;20410;-45
2020/12/13 15:06:34;;;;;;;2.97;1.50;;;18.10;34.40;;;;;;8318445;28;20048;-43
2020/12/13 15:10:35;;;;;;;1.20;1.00;;;18.10;34.40;;;;;;8272996;28;20046;-49
2020/12/13 15:14:51;;;;;;;1.60;1.13;;;18.10;34.40;;;;;;8276704;28;20522;-45
2020/12/13 15:18:51;;;;;;;3.28;1.30;;;18.10;34.40;;;;;;8287969;28;20121;-46
2020/12/13 15:22:52;;;;;;;1.30;1.10;;;18.10;34.40;;;;;;8264493;28;20448;-45
2020/12/13 15:26:52;;;;;;;1.60;1.50;;;18.10;34.40;;;;;;8283580;28;20034;-45
2020/12/13 15:30:53;;;;;;;2.13;1.50;;;18.10;34.40;;;;;;8274966;28;20121;-46
2020/12/13 15:34:54;;;;;;;1.37;1.27;;;18.10;34.40;;;;;;8259817;28;20048;-45
2020/12/13 15:38:54;;;;;;;1.58;1.40;;;18.00;34.40;;;;;;8263989;28;20100;-45
2020/12/13 15:42:55;;;;;;;2.77;1.50;;;18.00;34.40;;;;;;8258153;28;20479;-45
2020/12/13 15:46:56;;;;;;;1.90;1.40;;;18.00;34.40;;;;;;8259484;28;20097;-45
2020/12/13 15:50:56;;;;;;;2.03;1.43;;;18.00;34.40;;;;;;8279209;28;20037;-45
2020/12/13 15:54:57;;;;;;;2.83;1.90;;;18.00;34.40;;;;;;8266643;28;20051;-45
2020/12/13 15:58:58;;;;;;;2.63;1.40;;;18.00;34.40;;;;;;8259473;28;20407;-45
2020/12/13 16:02:58;;;;;;;4.28;1.65;;;18.00;34.40;;;;;;8259408;28;20038;-47
2020/12/13 16:07:06;;;;;;;3.73;1.87;;;18.00;34.40;;;;;;8286106;28;20148;-44
2020/12/13 16:11:12;;;;;;;1.83;1.15;;;18.00;34.40;;;;;;8291318;28;20059;-46
2020/12/13 16:15:12;;;;;;;2.45;1.50;;;18.00;34.40;;;;;;8295510;28;20050;-44
2020/12/13 16:19:13;;;;;;;2.47;1.73;;;18.00;34.40;;;;;;8265886;28;20495;-44
2020/12/13 16:23:14;;;;;;;1.77;1.63;;;18.00;34.40;;;;;;8297623;28;20065;-47
2020/12/13 16:27:14;;;;;;;3.10;1.70;;;18.00;34.50;;;;;;8297498;28;20178;-44
2020/12/13 16:31:15;;;;;;;2.80;1.80;;;18.00;34.50;;;;;;8294006;28;20080;-45
2020/12/13 16:35:16;;;;;;;1.60;1.50;;;18.00;34.50;;;;;;8278630;28;20140;-45
2020/12/13 16:39:21;;;;;;;2.35;1.52;;;17.90;34.40;;;;;;8297380;28;20048;-45
2020/12/13 16:43:30;;;;;;;3.55;1.75;;;17.90;34.40;;;;;;8295905;28;20034;-45
2020/12/13 16:47:36;;;;;;;3.60;1.70;;;18.00;34.50;;;;;;8281565;28;20065;-47
2020/12/13 16:51:58;;;;;;;2.50;1.55;;;17.90;34.40;;;;;;8292311;28;20038;-45
2020/12/13 16:56:00;;;;;;;2.22;1.60;;;17.90;34.40;;;;;;8277716;28;20053;-45
2020/12/13 17:00:01;;;;;;;2.38;1.52;;;17.90;34.40;;;;;;8297961;28;20046;-45
2020/12/13 17:04:02;;;;;;;3.03;1.50;;;17.90;34.50;;;;;;8294988;28;20063;-45
2020/12/13 17:08:02;;;;;;;1.97;1.50;;;17.90;35.00;;;;;;8283881;28;20435;-45
2020/12/13 17:12:03;;;;;;;3.10;1.50;;;17.90;34.50;;;;;;8288909;28;20360;-47
2020/12/13 17:16:05;;;;;;;3.20;1.40;;;17.90;34.40;;;;;;8294402;28;20053;-45
2020/12/13 17:20:09;;;;;;;2.95;1.60;;;17.90;34.40;;;;;;8282532;28;20129;-44
2020/12/13 17:24:10;;;;;;;2.30;1.50;;;17.90;34.40;;;;;;8263254;28;20399;-45
2020/12/13 17:28:11;;;;;;;4.53;1.73;;;17.90;34.40;;;;;;8235378;28;20046;-45
2020/12/13 17:32:12;;;;;;;;;;;17.90;34.40;;;;;;8259570;28;20042;-45
2020/12/13 17:36:12;;;;;;;3.83;2.05;;;17.90;35.00;;;;;;8262610;28;19976;-44
2020/12/13 17:40:15;;;;;;;3.10;1.67;;;17.90;34.40;;;;;;8261135;28;20038;-45
2020/12/13 17:44:19;;;;;;;2.42;1.50;;;17.90;34.40;;;;;;8263432;28;20069;-45
2020/12/13 17:48:20;;;;;;;1.75;1.27;;;17.90;34.40;;;;;;8234761;28;20035;-45
2020/12/13 17:56:55;;;;;;;1.80;1.50;;;17.80;34.40;;;;;;8290037;28;20091;-46
2020/12/13 18:00:55;;;;;;;1.67;1.33;;;17.80;34.40;;;;;;8293033;28;20439;-46
2020/12/13 18:04:56;;;;;;;2.33;1.57;;;17.80;34.50;;;;;;8299329;28;20084;-43
2020/12/13 18:08:56;;;;;;;1.93;1.33;;;17.80;34.40;;;;;;8274390;28;20563;-45
2020/12/13 18:12:57;;;;;;;2.97;1.40;;;17.80;34.40;;;;;;8261073;28;20089;-44
2020/12/13 18:16:57;;;;;;;3.97;1.90;;;17.80;34.40;;;;;;8273233;28;20033;-44
2020/12/13 18:21:00;;;;;;;4.03;2.00;;;17.80;34.50;;;;;;8274190;28;20023;-45
2020/12/13 18:25:01;;;;;;;2.95;1.88;;;17.80;34.40;;;;;;8268429;28;20038;-44
2020/12/13 18:29:01;;;;;;;3.07;1.93;;;17.80;34.50;;;;;;8281988;28;20089;-44
2020/12/13 18:33:02;;;;;;;3.30;2.07;;;17.80;34.50;;;;;;8281825;28;20514;-44
2020/12/13 18:37:03;;;;;;;3.10;2.13;;;17.90;34.50;;;;;;8263676;28;20038;-44
2020/12/13 18:41:04;;;;;;;2.45;1.80;;;17.80;34.40;;;;;;8265581;28;20057;-44
2020/12/13 18:45:04;;;;;;;2.80;1.90;;;17.80;34.50;;;;;;8289951;28;20034;-43
2020/12/13 18:49:05;;;;;;;3.20;2.13;;;17.80;34.40;;;;;;8300483;28;20054;-43
2020/12/13 18:53:05;;;;;;;2.57;1.70;;;17.80;34.40;;;;;;8281030;28;20045;-43
2020/12/13 18:57:06;;;;;;;2.67;2.03;;;17.80;34.40;;;;;;8282247;28;20499;-44
2020/12/13 19:01:09;;;;;;;2.97;1.97;;;17.80;34.40;;;;;;8289742;28;20045;-44
2020/12/13 19:05:16;;;;;;;2.97;2.10;;;17.80;34.40;;;;;;8260130;28;20038;-45
2020/12/13 19:09:20;;;;;;;2.65;2.00;;;17.80;34.50;;;;;;8260200;28;20089;-45
2020/12/13 19:13:21;;;;;;;2.70;1.98;;;17.70;34.40;;;;;;8258355;28;20411;-44
2020/12/13 19:17:24;;;;;;;2.23;2.03;;;17.70;34.40;;;;;;8264245;28;20113;-44
2020/12/13 19:21:25;;;;;;;2.85;1.90;;;17.80;34.50;;;;;;8259743;28;20039;-45
2020/12/13 19:25:25;;;;;;;3.10;2.10;;;17.80;34.50;;;;;;8265466;28;20126;-47
2020/12/13 19:29:26;;;;;;;2.63;2.03;;;17.70;34.40;;;;;;8292524;28;20119;-46
2020/12/13 19:33:27;;;;;;;3.05;1.92;;;17.70;34.40;;;;;;8294342;28;20441;-47
2020/12/13 19:37:27;;;;;;;4.97;2.93;;;17.70;34.40;;;;;;8292781;28;20030;-46
2020/12/13 19:41:28;;;;;;;4.47;2.60;;;17.70;34.40;;;;;;8291853;28;20061;-46
2020/12/13 19:45:28;;;;;;;4.40;2.30;;;17.70;34.40;;;;;;8292020;28;20035;-46
2020/12/13 19:49:29;;;;;;;3.57;2.53;;;17.70;34.40;;;;;;8258334;28;20133;-47
2020/12/13 19:53:33;;;;;;;6.70;2.50;;;17.70;34.40;;;;;;8279936;28;20074;-45
2020/12/13 19:57:34;;;;;;;3.10;2.50;;;17.70;34.40;;;;;;8296638;28;20196;-44
2020/12/13 20:01:34;;;;;;;2.50;2.30;;;17.70;34.40;;;;;;8274660;28;20076;-49
2020/12/13 20:05:36;;;;;;;4.00;2.23;;;17.70;34.40;;;;;;8297868;28;20068;-46
2020/12/13 20:09:36;;;;;;;;;;;17.70;34.40;;;;;;8301219;28;20038;-45
2020/12/13 20:13:46;;;;;;;2.95;2.28;;;17.70;34.40;;;;;;8297778;28;19922;-44
2020/12/13 20:44:24;;;;;;;4.57;2.70;;;17.70;34.40;;;;;;8263290;28;20035;-47
2020/12/13 20:57:37;;;;;;;4.10;2.67;;;17.70;34.40;;;;;;8268245;28;20049;-45
2020/12/13 21:06:10;;;;;;;5.18;2.70;;;17.60;34.40;;;;;;8283528;28;20046;-45
2020/12/13 21:18:03;;;;;;;3.92;3.05;;;17.60;34.40;;;;;;8296138;28;20034;-45
2020/12/13 21:22:06;;;;;;;4.20;2.80;;;17.60;34.40;;;;;;8274264;28;20041;-44
2020/12/13 21:39:03;;;;;;;4.13;3.08;;;17.60;34.40;;;;;;8295694;28;20032;-45
2020/12/13 21:47:35;;;;;;;4.32;2.83;;;17.60;34.40;;;;;;8294990;28;20137;-45
2020/12/13 21:51:35;;;;;;;5.00;3.20;;;17.60;34.40;;;;;;8292631;28;20076;-45
2020/12/13 21:59:45;;;;;;;5.18;3.47;;;17.60;34.40;;;;;;8262332;28;20026;-44
2020/12/13 22:25:06;;;;;;;5.00;3.20;;;17.50;34.50;;;;;;8264078;28;20073;-45
2020/12/13 22:29:10;;;;;;;5.40;3.20;;;17.50;34.40;;;;;;8277449;28;20083;-45
2020/12/13 22:33:14;;;;;;;4.75;3.30;;;17.50;34.50;;;;;;8272379;28;20049;-45
2020/12/13 22:37:16;;;;;;;5.07;3.25;;;17.40;34.40;;;;;;8259691;28;20060;-45
2020/12/13 22:41:17;;;;;;;3.92;3.05;;;17.40;34.40;;;;;;8260810;28;20627;-45